Detall de PIREP

Printer-friendly versionPDF version

[2013/09/08 07:23:00]
Flight IATA:CT3255
Pilot Number:012
Company ICAO:CAT
Aircraft Type:B744/E
PAX:257
Departing Airport: LDZA
Destination Airport: LEPA
Alternate Airport:LEBL
Online: VATSIM
Route:KOTOR UT742 NAKIT UL615 AKADO UM196 LAGEN UM859 VAMTU UM984 DIVKO UN852 VERSO UL129 LUNIK
Flight Level:F360
No Slew and time accel
No pause
Crash detect
Detect pilot in Cockpit between each 30 and 45 minutes
07:23 Zero fuel Weight: 449804 Lbs, Fuel Weight: 92861 Lbs
07:23 VATSIM:LDZA 080700Z 11004KT 050V150 CAVOK 18/12 Q1022 NOSIG
07:23 VATSIM:LEPA 080700Z VRB01KT 8000 FEW012 FEW020TCU SCT022 BKN060 24/22 Q1019 NOSIG
07:23 VOICE CATALONIAN
07:25 Parking Brakes off
07:28 Take-off
07:28 Take off Weight: 541196 Lbs
07:28 Wind: 091º @ 004 Knots Heading: 048º
07:28 POS N45º 44´ 29´´ E016º 04´ 00´´
07:28 Gear Up: 182 Knots
07:28 Flaps:3 at 183 Knots
07:28 Flaps:2 at 198 Knots
07:29 Flaps:1 at 213 Knots
07:29 Flaps:0 at 256 Knots
07:41 TOC
07:41 Fuel Weight: 81428 Lb
07:43 Wind:280º@028 Knots Heading: 267º Ground Speed: 458 Knots Altitude 36197 ft
07:58 Wind:231º@055 Knots Heading: 251º Ground Speed: 432 Knots Altitude 36141 ft
08:13 Wind:232º@052 Knots Heading: 249º Ground Speed: 434 Knots Altitude 36174 ft
08:28 Wind:230º@086 Knots Heading: 229º Ground Speed: 395 Knots Altitude 36154 ft
08:43 Wind:229º@082 Knots Heading: 243º Ground Speed: 403 Knots Altitude 36141 ft
08:58 Wind:233º@081 Knots Heading: 196º Ground Speed: 422 Knots Altitude 36171 ft
09:03 TOD
09:03 Fuel Weight: 54209 Lb
09:13 Wind:229º@050 Knots Heading: 183º Ground Speed: 341 Knots Altitude 17536 ft
09:23 Flaps:1 at 211 Knots
09:23 Flaps:2 at 210 Knots
09:24 Flaps:3 at 192 Knots
09:25 Gear Down: 175 Knots
09:25 Flaps:4 at 171 Knots
09:25 Flaps:5 at 161 Knots
09:26 Flaps:6 at 151 Knots
09:28 Wind:298º@001 Knots Heading: 238º Ground Speed: 147 Knots Altitude 2234 ft
09:30 TouchDown:Rate -449 ft/min Speed: 134 Knots
09:30 VATSIM:LEPA 080900Z 25007KT 9999 FEW010 FEW016TCU SCT020 26/22 Q1020 NOSIG
09:31 Land
09:31 Wind:337º@000 Knots
09:31 Heading: 240º
09:31 Flight Duration: 02:03
09:31 Landing Weight: 497890 Lbs
09:31 POS N39º 32´ 55´´ E002º 44´ 51´´
09:34 Parking brakes on
09:34 Block to Block Duration: 02:09
09:34 Final Fuel: 47420 Lbls
09:34 Spent Fuel: 45441 Lbls
09:34 Flight Length: 784 NM
09:34 TOD Land Length: 125 NM

Exportar CSV

Powered by Drupal - Modified by Danger4k